Terminal Aerodrome Forecast
Issued by NWS

Home | Current Version | Previous Version | Text Only | Print | Product List | Glossary On
Versions: 1 2 3 4 5 6 7 8 9 10 11 12 13 14 15 16 17 18 19 20 21 22 23 24 25 26
827
FTUS46 KMTR 271733
TAFSFO
TAF
KSFO 271733Z 2718/2824 34007KT P6SM SKC
     FM272000 31015KT P6SM SKC
     FM280400 29010KT P6SM FEW009
     FM280800 29005KT P6SM OVC007
     FM281600 33003KT P6SM FEW010
     FM282200 29016KT P6SM FEW010=

USA.gov is the U.S. government's official web portal to all federal, state and local government web resources and services.